Time;durP1;ratioP1;P1;durP2;ratioP2;P2;SDS_P1;SDS_P2;PMS_P1;PMS_P2;Temp;Humidity;BMP_temperature;BMP_pressure;BME280_temperature;BME280_humidity;BME280_pressure;Samples;Min_cycle;Max_cycle;Signal;HPM_P1;HPM_P2
2023/12/04 00:00:38;;;;;;;19.33;8.57;;;-0.60;99.90;;;;;;6186486;22;20013;-53
2023/12/04 00:03:03;;;;;;;20.48;7.95;;;-0.60;99.90;;;;;;6206909;23;20004;-54
2023/12/04 00:05:29;;;;;;;18.65;8.40;;;-0.60;99.90;;;;;;6208094;23;20420;-55
2023/12/04 00:07:55;;;;;;;18.80;8.82;;;-0.60;99.90;;;;;;6181638;23;20009;-56
2023/12/04 00:10:21;;;;;;;20.27;9.13;;;-0.60;99.90;;;;;;6207556;23;20000;-54
2023/12/04 00:12:47;;;;;;;20.80;9.55;;;-0.60;99.90;;;;;;6208065;23;20005;-55
2023/12/04 00:15:13;;;;;;;22.23;9.88;;;-0.60;99.90;;;;;;6207868;23;20008;-55
2023/12/04 00:17:39;;;;;;;20.58;8.73;;;-0.50;99.90;;;;;;6207900;23;20036;-53
2023/12/04 00:20:09;;;;;;;20.48;9.15;;;-0.50;99.90;;;;;;6207784;23;20039;-54
2023/12/04 00:22:36;;;;;;;15.68;7.93;;;-0.50;99.90;;;;;;6206519;23;20008;-55
2023/12/04 00:25:03;;;;;;;20.52;8.68;;;-0.50;99.90;;;;;;6207241;23;20072;-55
2023/12/04 00:27:29;;;;;;;18.85;8.65;;;-0.50;99.90;;;;;;6207987;23;20009;-55
2023/12/04 00:29:55;;;;;;;20.73;9.02;;;-0.40;99.90;;;;;;6208189;23;20433;-55
2023/12/04 00:32:20;;;;;;;16.85;7.97;;;-0.40;99.90;;;;;;6208767;23;19997;-52
2023/12/04 00:34:46;;;;;;;18.40;8.38;;;-0.50;99.90;;;;;;6208108;23;20007;-56
2023/12/04 00:37:11;;;;;;;17.30;8.07;;;-0.40;99.90;;;;;;6207878;23;20008;-52
2023/12/04 00:39:37;;;;;;;17.38;8.30;;;-0.40;99.90;;;;;;6207315;23;20000;-56
2023/12/04 00:42:03;;;;;;;15.93;7.70;;;-0.40;99.90;;;;;;6207641;23;20083;-54
2023/12/04 00:44:28;;;;;;;17.13;7.60;;;-0.40;99.90;;;;;;6208654;23;20024;-54
2023/12/04 00:46:54;;;;;;;19.30;8.50;;;-0.40;99.90;;;;;;6208492;23;20164;-55
2023/12/04 00:49:20;;;;;;;17.50;8.85;;;-0.40;99.90;;;;;;6207867;23;20907;-55
2023/12/04 00:51:45;;;;;;;16.67;8.35;;;-0.40;99.90;;;;;;6206871;23;19993;-54
2023/12/04 00:54:11;;;;;;;18.40;8.50;;;-0.50;99.90;;;;;;6206881;23;20041;-56
2023/12/04 00:56:40;;;;;;;17.73;9.00;;;-0.50;99.90;;;;;;6207344;23;20013;-55
2023/12/04 00:59:08;;;;;;;17.48;8.45;;;-0.60;99.90;;;;;;6207489;23;20065;-52
2023/12/04 01:01:35;;;;;;;15.57;7.95;;;-0.60;99.90;;;;;;6157324;22;20065;-55
2023/12/04 01:04:01;;;;;;;15.57;7.80;;;-0.60;99.90;;;;;;6181708;22;20005;-54
2023/12/04 01:06:27;;;;;;;15.50;8.10;;;-0.60;99.90;;;;;;6180856;23;20013;-54
2023/12/04 01:08:54;;;;;;;17.02;8.80;;;-0.60;99.90;;;;;;6207360;22;20005;-53
2023/12/04 01:11:20;;;;;;;18.17;8.90;;;-0.70;99.90;;;;;;6207076;22;20009;-56
2023/12/04 01:13:46;;;;;;;17.80;8.85;;;-0.70;99.90;;;;;;6208254;23;20077;-55
2023/12/04 01:16:12;;;;;;;17.42;8.82;;;-0.60;99.90;;;;;;6179975;23;20408;-54
2023/12/04 01:18:37;;;;;;;19.40;8.43;;;-0.60;99.90;;;;;;6206977;23;20016;-54
2023/12/04 01:21:03;;;;;;;22.30;9.10;;;-0.60;99.90;;;;;;6207510;23;20072;-53
2023/12/04 01:23:29;;;;;;;15.65;7.93;;;-0.60;99.90;;;;;;6207337;23;20012;-55
2023/12/04 01:25:55;;;;;;;17.23;7.60;;;-0.60;99.90;;;;;;6207456;23;20022;-54
2023/12/04 01:28:20;;;;;;;17.63;7.95;;;-0.60;99.90;;;;;;6208113;23;20001;-52
2023/12/04 01:30:46;;;;;;;18.65;8.45;;;-0.50;99.90;;;;;;6208073;23;20008;-55
2023/12/04 01:33:12;;;;;;;17.70;8.57;;;-0.50;99.90;;;;;;6208738;23;20005;-52
2023/12/04 01:35:37;;;;;;;17.35;8.18;;;-0.50;99.90;;;;;;6207917;23;20028;-52
2023/12/04 01:38:03;;;;;;;16.45;8.45;;;-0.50;99.90;;;;;;6206195;23;20011;-53
2023/12/04 01:40:29;;;;;;;15.45;7.88;;;-0.50;99.90;;;;;;6204045;23;20454;-54
2023/12/04 01:42:54;;;;;;;17.95;7.82;;;-0.50;99.90;;;;;;6203118;23;20815;-56
2023/12/04 01:45:20;;;;;;;18.02;8.25;;;-0.50;99.90;;;;;;6207682;23;20019;-57
2023/12/04 01:47:46;;;;;;;17.52;8.07;;;-0.50;99.90;;;;;;6207670;23;20005;-56
2023/12/04 01:50:14;;;;;;;16.20;8.15;;;-0.50;99.90;;;;;;6205421;23;20001;-53
2023/12/04 01:52:40;;;;;;;17.77;8.13;;;-0.50;99.90;;;;;;6207583;23;20432;-56
2023/12/04 01:55:08;;;;;;;18.05;8.43;;;-0.50;99.90;;;;;;6207325;22;20058;-55
2023/12/04 01:57:34;;;;;;;18.77;7.43;;;-0.50;99.90;;;;;;6207971;23;20054;-56
2023/12/04 02:00:00;;;;;;;16.38;7.50;;;-0.50;99.90;;;;;;6160355;22;20411;-54
2023/12/04 02:02:27;;;;;;;19.83;8.73;;;-0.50;99.90;;;;;;6180905;23;20047;-57
2023/12/04 02:04:55;;;;;;;12.38;6.40;;;-0.60;99.90;;;;;;6207698;23;20112;-55
2023/12/04 02:07:21;;;;;;;14.98;7.60;;;-0.60;99.90;;;;;;6207597;22;20065;-55
2023/12/04 02:09:47;;;;;;;14.65;7.43;;;-0.60;99.90;;;;;;6207914;23;20024;-56
2023/12/04 02:12:12;;;;;;;17.92;8.38;;;-0.60;99.90;;;;;;6208026;22;20016;-52
2023/12/04 02:14:38;;;;;;;17.17;8.60;;;-0.60;99.90;;;;;;6208018;23;20089;-53
2023/12/04 02:17:06;;;;;;;18.67;7.72;;;-0.60;99.90;;;;;;6207658;23;20007;-56
2023/12/04 02:19:32;;;;;;;14.55;7.55;;;-0.60;99.90;;;;;;6206023;23;20012;-56
2023/12/04 02:21:58;;;;;;;16.58;7.68;;;-0.60;99.90;;;;;;6208199;23;20008;-55
2023/12/04 02:24:24;;;;;;;14.93;7.00;;;-0.60;99.90;;;;;;6206446;23;20034;-54
2023/12/04 02:26:56;;;;;;;14.30;6.90;;;-0.60;99.90;;;;;;6206883;23;20020;-53
2023/12/04 02:29:29;;;;;;;16.10;7.53;;;-0.60;99.90;;;;;;6207095;23;20001;-54
2023/12/04 02:31:56;;;;;;;15.35;6.65;;;-0.60;99.90;;;;;;6208602;23;20008;-54
2023/12/04 02:34:23;;;;;;;17.48;7.20;;;-0.60;99.90;;;;;;6208337;22;20012;-56
2023/12/04 02:36:51;;;;;;;17.05;7.40;;;-0.60;99.90;;;;;;6207377;22;20035;-55
2023/12/04 02:39:17;;;;;;;16.60;6.93;;;-0.60;99.90;;;;;;6207292;22;20348;-56
2023/12/04 02:41:43;;;;;;;15.48;6.63;;;-0.60;99.90;;;;;;6207742;23;20016;-56
2023/12/04 02:44:08;;;;;;;14.45;7.65;;;-0.60;99.90;;;;;;6207593;23;20015;-55
2023/12/04 02:46:34;;;;;;;17.42;6.68;;;-0.60;99.90;;;;;;6207585;23;20004;-56
2023/12/04 02:49:00;;;;;;;15.55;7.57;;;-0.60;99.90;;;;;;6207697;23;20001;-56
2023/12/04 02:51:26;;;;;;;15.50;7.30;;;-0.60;99.90;;;;;;6208186;23;20420;-54
2023/12/04 02:53:52;;;;;;;13.75;7.80;;;-0.60;99.90;;;;;;6181622;22;20001;-55
2023/12/04 02:56:17;;;;;;;11.10;6.60;;;-0.70;99.90;;;;;;6208078;23;20008;-54
2023/12/04 02:58:43;;;;;;;18.02;6.95;;;-0.60;99.90;;;;;;6207170;23;20360;-54
2023/12/04 03:01:09;;;;;;;19.08;7.65;;;-0.60;99.90;;;;;;6157642;22;20096;-56
2023/12/04 03:03:35;;;;;;;14.82;7.03;;;-0.60;99.90;;;;;;6208215;23;20009;-61
2023/12/04 03:06:01;;;;;;;12.43;5.65;;;-0.60;99.90;;;;;;6207443;23;20009;-56
2023/12/04 03:08:26;;;;;;;14.60;6.57;;;-0.60;99.90;;;;;;6208022;23;20005;-53
2023/12/04 03:10:52;;;;;;;13.40;6.55;;;-0.60;99.90;;;;;;6207744;23;20036;-54
2023/12/04 03:13:17;;;;;;;16.20;6.47;;;-0.60;99.90;;;;;;6208058;23;20479;-53
2023/12/04 03:15:43;;;;;;;14.73;6.72;;;-0.60;99.90;;;;;;6207348;23;20114;-54
2023/12/04 03:18:09;;;;;;;15.48;7.20;;;-0.60;99.90;;;;;;6207449;23;20008;-56
2023/12/04 03:20:35;;;;;;;15.80;6.43;;;-0.60;99.90;;;;;;6207609;23;20096;-52
2023/12/04 03:23:00;;;;;;;17.75;6.88;;;-0.60;99.90;;;;;;6207953;23;20001;-54
2023/12/04 03:25:26;;;;;;;13.52;6.55;;;-0.60;99.90;;;;;;6207853;23;20058;-56
2023/12/04 03:27:52;;;;;;;14.00;6.78;;;-0.60;99.90;;;;;;6207650;23;20011;-51
2023/12/04 03:30:17;;;;;;;15.20;6.75;;;-0.60;99.90;;;;;;6207800;23;20019;-53
2023/12/04 03:32:43;;;;;;;13.23;6.10;;;-0.60;99.90;;;;;;6207391;23;20004;-53
2023/12/04 03:35:09;;;;;;;14.60;6.50;;;-0.70;99.90;;;;;;6207710;23;20001;-53
2023/12/04 03:37:36;;;;;;;15.82;6.82;;;-0.70;99.90;;;;;;6207281;23;20001;-52
2023/12/04 03:40:01;;;;;;;14.73;7.03;;;-0.70;99.90;;;;;;6207086;23;20011;-58
2023/12/04 03:42:27;;;;;;;17.23;7.35;;;-0.70;99.90;;;;;;6207110;23;20025;-53
2023/12/04 03:44:53;;;;;;;15.07;6.72;;;-0.70;99.90;;;;;;6206216;23;20004;-55
2023/12/04 03:47:18;;;;;;;12.75;5.82;;;-0.70;99.90;;;;;;6207311;23;20070;-59
2023/12/04 03:49:44;;;;;;;14.77;6.38;;;-0.60;99.90;;;;;;6206647;23;20761;-54
2023/12/04 03:52:10;;;;;;;13.80;6.30;;;-0.60;99.90;;;;;;6207308;23;20004;-55
2023/12/04 03:54:35;;;;;;;13.63;6.45;;;-0.70;99.90;;;;;;6208208;23;20000;-57
2023/12/04 03:57:02;;;;;;;14.60;6.55;;;-0.70;99.90;;;;;;6206680;23;20001;-55
2023/12/04 03:59:27;;;;;;;17.60;6.65;;;-0.70;99.90;;;;;;6207181;23;20046;-57
2023/12/04 04:01:53;;;;;;;14.95;7.05;;;-0.70;99.90;;;;;;6185062;22;20012;-55
2023/12/04 04:04:18;;;;;;;15.23;7.03;;;-0.70;99.90;;;;;;6208225;23;20007;-51
2023/12/04 04:06:44;;;;;;;18.00;6.80;;;-0.70;99.90;;;;;;6206876;23;20013;-53
2023/12/04 04:09:10;;;;;;;16.60;7.10;;;-0.70;99.90;;;;;;6206846;23;20008;-57
2023/12/04 04:11:35;;;;;;;11.95;6.10;;;-0.70;99.90;;;;;;6207234;23;20004;-55
2023/12/04 04:14:01;;;;;;;14.50;7.18;;;-0.70;99.90;;;;;;6205239;23;19997;-53
2023/12/04 04:16:27;;;;;;;17.77;6.93;;;-0.70;99.90;;;;;;6206940;23;20012;-54
2023/12/04 04:18:52;;;;;;;14.32;6.47;;;-0.70;99.90;;;;;;6205774;23;20015;-56
2023/12/04 04:21:18;;;;;;;15.20;6.63;;;-0.70;99.90;;;;;;6206495;23;20031;-53
2023/12/04 04:23:43;;;;;;;18.20;8.45;;;-0.70;99.90;;;;;;6206032;23;20340;-52
2023/12/04 04:26:09;;;;;;;18.80;7.70;;;-0.70;99.90;;;;;;6205565;23;20402;-54
2023/12/04 04:28:35;;;;;;;15.93;7.60;;;-0.70;99.90;;;;;;6205813;23;20000;-57
2023/12/04 04:31:00;;;;;;;15.25;6.85;;;-0.60;99.90;;;;;;6205614;23;20000;-53
2023/12/04 04:33:26;;;;;;;14.43;6.55;;;-0.60;99.90;;;;;;6205878;22;20030;-51
2023/12/04 04:35:52;;;;;;;16.23;8.25;;;-0.60;99.90;;;;;;6205189;23;19997;-54
2023/12/04 04:38:17;;;;;;;16.65;7.70;;;-0.60;99.90;;;;;;6205952;23;20325;-52
2023/12/04 04:40:44;;;;;;;19.45;7.40;;;-0.60;99.90;;;;;;6205643;23;20012;-53
2023/12/04 04:43:10;;;;;;;15.75;7.72;;;-0.60;99.90;;;;;;6179623;23;20028;-55
2023/12/04 04:45:36;;;;;;;16.30;8.05;;;-0.60;99.90;;;;;;6205643;23;20456;-54
2023/12/04 04:48:01;;;;;;;14.48;6.63;;;-0.60;99.90;;;;;;6204877;23;20008;-54
2023/12/04 04:50:27;;;;;;;18.10;8.07;;;-0.50;99.90;;;;;;6205569;23;20004;-55
2023/12/04 04:52:53;;;;;;;15.13;6.75;;;-0.60;99.90;;;;;;6207431;23;20816;-55
2023/12/04 04:55:18;;;;;;;16.40;7.45;;;-0.50;99.90;;;;;;6206429;23;20531;-55
2023/12/04 04:57:44;;;;;;;18.70;8.30;;;-0.50;99.90;;;;;;6207017;23;20093;-55
2023/12/04 05:00:11;;;;;;;15.35;6.47;;;-0.50;99.90;;;;;;6206301;23;20015;-54
2023/12/04 05:02:37;;;;;;;17.88;7.75;;;-0.60;99.90;;;;;;6186008;22;20095;-52
2023/12/04 05:05:04;;;;;;;17.52;8.30;;;-0.60;99.90;;;;;;6207362;22;20479;-53
2023/12/04 05:07:30;;;;;;;16.98;7.20;;;-0.60;99.90;;;;;;6206774;23;20035;-50
2023/12/04 05:09:55;;;;;;;20.27;7.25;;;-0.60;99.90;;;;;;6206613;23;19997;-51
2023/12/04 05:12:21;;;;;;;16.00;7.05;;;-0.60;99.90;;;;;;6207242;23;19996;-51
2023/12/04 05:14:47;;;;;;;16.10;8.25;;;-0.60;99.90;;;;;;6206885;23;20340;-51
2023/12/04 05:17:12;;;;;;;16.23;7.78;;;-0.60;99.90;;;;;;6206301;23;20004;-51
2023/12/04 05:19:38;;;;;;;20.92;8.55;;;-0.60;99.90;;;;;;6207109;23;20046;-52
2023/12/04 05:22:03;;;;;;;15.05;6.60;;;-0.70;99.90;;;;;;6207253;23;20000;-53
2023/12/04 05:24:29;;;;;;;18.00;8.23;;;-0.70;99.90;;;;;;6206785;23;20005;-50
2023/12/04 05:26:55;;;;;;;17.95;8.27;;;-0.70;99.90;;;;;;6179941;23;20009;-52
2023/12/04 05:29:20;;;;;;;17.85;7.43;;;-0.70;99.90;;;;;;6206966;22;20363;-52
2023/12/04 05:31:46;;;;;;;17.33;7.93;;;-0.70;99.90;;;;;;6207125;23;20004;-51
2023/12/04 05:34:12;;;;;;;15.88;7.72;;;-0.70;99.90;;;;;;6207442;23;20084;-55
2023/12/04 05:36:38;;;;;;;17.92;7.47;;;-0.70;99.90;;;;;;6206960;23;20036;-54
2023/12/04 05:39:04;;;;;;;15.55;8.45;;;-0.80;99.90;;;;;;6205826;23;20004;-53
2023/12/04 05:41:30;;;;;;;16.40;7.97;;;-0.70;99.90;;;;;;6181023;23;20050;-53
2023/12/04 05:43:56;;;;;;;17.00;7.97;;;-0.70;99.90;;;;;;6206962;23;20001;-55
2023/12/04 05:46:21;;;;;;;15.77;7.65;;;-0.70;99.90;;;;;;6180033;23;20012;-53
2023/12/04 05:48:48;;;;;;;14.15;7.75;;;-0.70;99.90;;;;;;6206742;23;20070;-51
2023/12/04 05:51:15;;;;;;;18.52;8.18;;;-0.70;99.90;;;;;;6207039;23;20004;-53
2023/12/04 05:53:41;;;;;;;18.48;9.27;;;-0.80;99.90;;;;;;6206368;23;20068;-55
2023/12/04 05:56:08;;;;;;;19.90;8.20;;;-0.70;99.90;;;;;;6206971;22;20024;-54
2023/12/04 05:58:34;;;;;;;19.10;8.10;;;-0.80;99.90;;;;;;6207259;23;20008;-51
2023/12/04 06:01:00;;;;;;;14.38;7.53;;;-0.80;99.90;;;;;;6183546;22;20014;-53
2023/12/04 06:03:26;;;;;;;16.90;7.60;;;-0.80;99.90;;;;;;6206993;23;20001;-51
2023/12/04 06:05:51;;;;;;;13.57;6.65;;;-0.80;99.90;;;;;;6206581;23;19996;-51
2023/12/04 06:08:17;;;;;;;17.33;8.60;;;-0.80;99.90;;;;;;6179563;23;20050;-52
2023/12/04 06:10:43;;;;;;;15.00;8.57;;;-0.80;99.90;;;;;;6206303;23;20009;-51
2023/12/04 06:13:08;;;;;;;14.98;8.07;;;-0.80;99.90;;;;;;6207052;23;20039;-51
2023/12/04 06:15:34;;;;;;;16.55;7.75;;;-0.80;99.90;;;;;;6207110;23;20015;-51
2023/12/04 06:18:00;;;;;;;17.60;8.23;;;-0.80;99.90;;;;;;6206816;23;20428;-55
2023/12/04 06:20:25;;;;;;;13.55;7.10;;;-0.80;99.90;;;;;;6206781;23;20009;-53
2023/12/04 06:22:51;;;;;;;18.23;6.95;;;-0.80;99.90;;;;;;6206754;23;20009;-51
2023/12/04 06:25:18;;;;;;;13.88;7.00;;;-0.80;99.90;;;;;;6206525;23;20031;-54
2023/12/04 06:27:44;;;;;;;15.45;7.68;;;-0.70;99.90;;;;;;6206521;23;20001;-54
2023/12/04 06:30:10;;;;;;;13.82;6.85;;;-0.70;99.90;;;;;;6206579;22;19996;-50
2023/12/04 06:32:36;;;;;;;16.85;8.05;;;-0.70;99.90;;;;;;6207027;23;20100;-54
2023/12/04 06:35:03;;;;;;;18.13;8.13;;;-0.70;99.90;;;;;;6206725;23;20017;-54
2023/12/04 06:37:29;;;;;;;16.52;7.38;;;-0.70;99.90;;;;;;6205948;23;20032;-54
2023/12/04 06:39:59;;;;;;;14.13;7.75;;;-0.60;99.90;;;;;;6205906;23;20001;-54
2023/12/04 06:42:25;;;;;;;19.45;7.65;;;-0.70;99.90;;;;;;6205999;22;20064;-53
2023/12/04 06:44:51;;;;;;;21.60;8.63;;;-0.70;99.90;;;;;;6206114;23;20079;-54
2023/12/04 06:47:22;;;;;;;15.30;8.20;;;-0.60;99.90;;;;;;6206273;23;20388;-51
2023/12/04 06:49:47;;;;;;;16.45;7.25;;;-0.60;99.90;;;;;;6206326;23;20468;-54
2023/12/04 06:52:13;;;;;;;15.70;7.35;;;-0.50;99.90;;;;;;6206977;23;20030;-54
2023/12/04 06:54:38;;;;;;;16.08;7.63;;;-0.50;99.90;;;;;;6206526;23;20043;-53
2023/12/04 06:57:04;;;;;;;12.65;6.63;;;-0.40;99.90;;;;;;6205947;23;20073;-52
2023/12/04 06:59:30;;;;;;;13.45;7.00;;;-0.40;99.90;;;;;;6206052;23;20390;-53
2023/12/04 07:01:56;;;;;;;13.70;6.15;;;-0.30;99.90;;;;;;6183520;23;20027;-51
2023/12/04 07:04:22;;;;;;;11.32;6.20;;;-0.30;99.90;;;;;;6206351;23;20007;-52
2023/12/04 07:06:48;;;;;;;16.02;7.28;;;-0.30;99.90;;;;;;6205944;23;20012;-50
2023/12/04 07:09:14;;;;;;;12.05;6.35;;;-0.30;99.90;;;;;;6206359;22;20061;-55
2023/12/04 07:11:40;;;;;;;13.52;7.00;;;-0.30;99.90;;;;;;6206629;23;19993;-53
2023/12/04 07:14:06;;;;;;;14.18;6.75;;;-0.30;99.90;;;;;;6205528;23;20019;-55
2023/12/04 07:16:40;;;;;;;12.32;6.43;;;-0.40;99.90;;;;;;6206557;23;20085;-51
2023/12/04 07:19:05;;;;;;;14.63;6.95;;;-0.30;99.90;;;;;;6205828;23;20007;-53
2023/12/04 07:21:31;;;;;;;11.70;5.90;;;-0.40;99.90;;;;;;6206678;23;20008;-52
2023/12/04 07:23:56;;;;;;;14.50;6.35;;;-0.40;99.90;;;;;;6206449;23;20083;-55
2023/12/04 07:26:22;;;;;;;12.75;6.35;;;-0.40;99.90;;;;;;6206167;23;20018;-53
2023/12/04 07:28:48;;;;;;;13.52;6.22;;;-0.40;99.90;;;;;;6206313;23;20396;-51
2023/12/04 07:31:13;;;;;;;15.98;6.85;;;-0.40;99.90;;;;;;6205683;23;20091;-52
2023/12/04 07:33:39;;;;;;;15.07;5.72;;;-0.40;99.90;;;;;;6205981;23;20049;-55
2023/12/04 07:36:05;;;;;;;12.10;5.25;;;-0.30;99.90;;;;;;6205468;23;20004;-51
2023/12/04 07:38:31;;;;;;;14.20;6.65;;;-0.30;99.90;;;;;;6206332;23;20030;-51
2023/12/04 07:40:56;;;;;;;12.65;6.30;;;-0.30;99.90;;;;;;6206044;23;20001;-51
2023/12/04 07:43:22;;;;;;;12.15;5.88;;;-0.30;99.90;;;;;;6206110;23;20001;-50
2023/12/04 07:45:48;;;;;;;16.02;6.30;;;-0.20;99.90;;;;;;6205726;23;20020;-55
2023/12/04 07:48:13;;;;;;;10.82;5.32;;;-0.20;99.90;;;;;;6205862;23;20034;-55
2023/12/04 07:50:39;;;;;;;12.95;6.30;;;-0.20;99.90;;;;;;6204513;23;20021;-55
2023/12/04 07:53:07;;;;;;;12.02;5.97;;;-0.20;99.90;;;;;;6206323;23;20353;-51
2023/12/04 07:55:33;;;;;;;10.23;5.63;;;-0.10;99.90;;;;;;6205865;23;20004;-55
2023/12/04 07:57:59;;;;;;;10.98;4.95;;;-0.10;99.90;;;;;;6204615;23;20009;-55
2023/12/04 08:00:26;;;;;;;16.23;6.00;;;-0.10;99.90;;;;;;6204941;22;20004;-53
2023/12/04 08:02:51;;;;;;;13.40;6.15;;;-0.10;99.90;;;;;;6169798;23;20021;-52
2023/12/04 08:05:17;;;;;;;14.02;6.85;;;0.00;99.90;;;;;;6205448;23;20031;-55
2023/12/04 08:07:43;;;;;;;16.85;6.97;;;0.10;99.90;;;;;;6153581;22;20017;-52
2023/12/04 08:10:08;;;;;;;14.55;7.32;;;0.10;99.90;;;;;;6193719;23;20016;-55
2023/12/04 08:12:34;;;;;;;13.60;6.50;;;0.10;99.90;;;;;;6205295;23;20011;-54
2023/12/04 08:15:01;;;;;;;13.85;6.70;;;0.10;99.90;;;;;;6205507;22;20012;-52
2023/12/04 08:17:27;;;;;;;20.38;9.27;;;0.10;99.90;;;;;;6203936;23;20437;-52
2023/12/04 08:19:54;;;;;;;17.00;7.43;;;0.20;99.90;;;;;;6205743;22;20008;-52
2023/12/04 08:22:19;;;;;;;23.38;10.40;;;0.20;99.90;;;;;;6205636;23;20011;-53
2023/12/04 08:24:45;;;;;;;24.63;12.55;;;0.20;99.90;;;;;;6206288;23;20373;-53
2023/12/04 08:27:11;;;;;;;47.47;21.35;;;0.20;99.90;;;;;;6206792;23;20038;-54
2023/12/04 08:29:36;;;;;;;37.72;14.88;;;0.20;99.90;;;;;;6207208;23;20366;-52
2023/12/04 08:32:02;;;;;;;25.95;11.32;;;0.20;99.90;;;;;;6151051;23;20020;-55
2023/12/04 08:34:28;;;;;;;19.58;9.57;;;0.20;99.90;;;;;;6197582;23;20024;-52
2023/12/04 08:36:53;;;;;;;19.20;10.57;;;0.20;99.90;;;;;;6206767;23;20054;-56
2023/12/04 08:39:19;;;;;;;14.35;9.25;;;0.20;99.90;;;;;;6206840;23;20005;-54
2023/12/04 08:41:47;;;;;;;13.85;6.95;;;0.20;99.90;;;;;;6207099;23;20456;-52
2023/12/04 08:44:13;;;;;;;13.68;6.50;;;0.20;99.90;;;;;;6207036;23;20008;-54
2023/12/04 08:46:39;;;;;;;12.55;5.85;;;0.20;99.90;;;;;;6206547;23;20012;-53
2023/12/04 08:49:05;;;;;;;12.80;6.22;;;0.30;99.90;;;;;;6206882;23;20371;-53
2023/12/04 08:51:31;;;;;;;12.90;6.00;;;0.30;99.90;;;;;;6206063;22;19997;-50
2023/12/04 08:53:57;;;;;;;27.27;18.25;;;0.40;99.90;;;;;;6207625;23;20083;-50
2023/12/04 08:56:23;;;;;;;18.02;11.45;;;0.30;99.90;;;;;;6206721;23;20008;-53
2023/12/04 08:58:50;;;;;;;23.45;11.82;;;0.40;99.90;;;;;;6206750;23;20028;-53
2023/12/04 09:01:16;;;;;;;71.55;32.10;;;0.40;99.90;;;;;;6207107;23;20361;-54
2023/12/04 09:03:41;;;;;;;13.43;6.82;;;0.50;99.90;;;;;;6184782;23;20046;-52
2023/12/04 09:06:07;;;;;;;8.48;4.80;;;0.50;99.90;;;;;;6207255;23;19996;-51
2023/12/04 09:08:34;;;;;;;11.95;5.35;;;0.50;99.90;;;;;;6206097;23;20004;-51
2023/12/04 09:11:00;;;;;;;12.90;5.80;;;0.60;99.90;;;;;;6206987;22;20004;-50
2023/12/04 09:13:25;;;;;;;15.32;7.18;;;0.60;99.90;;;;;;6179975;23;20053;-53
2023/12/04 09:15:51;;;;;;;16.15;7.95;;;0.70;99.90;;;;;;6207016;23;20035;-52
2023/12/04 09:18:17;;;;;;;13.40;5.55;;;0.80;99.90;;;;;;6206652;23;20063;-54
2023/12/04 09:20:43;;;;;;;11.98;6.20;;;0.80;99.90;;;;;;6206037;23;20012;-52
2023/12/04 09:23:09;;;;;;;17.90;9.05;;;0.80;99.90;;;;;;6207081;23;20313;-51
2023/12/04 09:25:35;;;;;;;12.10;5.20;;;0.90;99.90;;;;;;6206832;23;20031;-53
2023/12/04 09:28:01;;;;;;;14.02;6.95;;;0.90;99.90;;;;;;6206405;23;20337;-52
2023/12/04 09:30:26;;;;;;;9.63;5.18;;;0.90;99.90;;;;;;6206921;22;20027;-56
2023/12/04 09:32:52;;;;;;;8.25;4.90;;;1.00;99.90;;;;;;6205894;23;20001;-52
2023/12/04 09:35:18;;;;;;;11.90;5.95;;;1.00;99.90;;;;;;6205795;23;20337;-52
2023/12/04 09:37:45;;;;;;;19.15;7.22;;;1.00;99.90;;;;;;6206731;23;20008;-52
2023/12/04 09:40:11;;;;;;;12.68;7.18;;;1.10;99.90;;;;;;6206303;23;20442;-55
2023/12/04 09:42:39;;;;;;;14.40;6.40;;;1.10;99.90;;;;;;6206957;22;20074;-50
2023/12/04 09:45:07;;;;;;;12.60;6.28;;;1.10;99.90;;;;;;6207193;23;20080;-54
2023/12/04 09:47:34;;;;;;;13.57;5.72;;;1.20;99.90;;;;;;6205855;23;20019;-54
2023/12/04 09:50:00;;;;;;;10.52;5.20;;;1.30;99.90;;;;;;6207024;22;20581;-53
2023/12/04 09:52:27;;;;;;;12.25;6.00;;;1.40;99.90;;;;;;6206863;22;20379;-54
2023/12/04 09:54:53;;;;;;;9.57;4.70;;;1.50;99.90;;;;;;6206069;23;20009;-54
2023/12/04 09:57:21;;;;;;;12.30;5.90;;;1.60;99.90;;;;;;6206283;23;20061;-55
2023/12/04 09:59:48;;;;;;;9.60;5.32;;;1.70;99.90;;;;;;6206639;23;20433;-53
2023/12/04 10:02:14;;;;;;;8.13;4.90;;;1.70;99.90;;;;;;6205985;23;20150;-51
2023/12/04 10:04:41;;;;;;;8.98;4.63;;;1.70;99.90;;;;;;6206955;23;20028;-54
2023/12/04 10:07:06;;;;;;;9.73;4.57;;;1.80;99.90;;;;;;6206080;23;20024;-52
2023/12/04 10:09:32;;;;;;;11.52;5.30;;;2.00;99.90;;;;;;6204661;23;20070;-51
2023/12/04 10:11:58;;;;;;;9.60;5.13;;;2.00;99.90;;;;;;6206400;23;19997;-54
2023/12/04 10:14:23;;;;;;;9.05;4.95;;;2.10;99.90;;;;;;6206461;23;20005;-54
2023/12/04 10:16:59;;;;;;;8.10;4.63;;;2.20;99.90;;;;;;6128652;23;20017;-51
2023/12/04 10:19:27;;;;;;;11.77;5.55;;;2.30;99.90;;;;;;6204155;23;20012;-54
2023/12/04 10:21:55;;;;;;;11.20;5.43;;;2.30;99.90;;;;;;6207057;23;20005;-51
2023/12/04 10:24:35;;;;;;;9.85;5.05;;;2.20;99.90;;;;;;6206257;22;20008;-51
2023/12/04 10:27:04;;;;;;;10.00;5.07;;;2.20;99.90;;;;;;6206828;22;20381;-52
2023/12/04 10:29:42;;;;;;;9.57;4.75;;;2.10;99.90;;;;;;6206690;22;20379;-54
2023/12/04 10:32:07;;;;;;;10.93;5.57;;;2.20;99.90;;;;;;6206919;22;20470;-52
2023/12/04 10:34:33;;;;;;;10.98;5.00;;;2.20;99.90;;;;;;6179317;23;20083;-51
2023/12/04 10:36:59;;;;;;;10.88;5.10;;;2.20;99.90;;;;;;6206904;23;20013;-55
2023/12/04 10:39:28;;;;;;;10.75;5.38;;;2.30;99.90;;;;;;6206709;23;20001;-55
2023/12/04 10:42:03;;;;;;;9.75;5.00;;;2.40;99.90;;;;;;6206566;23;20015;-53
2023/12/04 10:44:32;;;;;;;11.73;5.68;;;2.50;99.90;;;;;;6206279;23;20039;-51
2023/12/04 10:47:00;;;;;;;12.15;5.32;;;2.40;99.90;;;;;;6206905;23;20061;-51
2023/12/04 10:49:28;;;;;;;9.55;4.60;;;2.40;99.90;;;;;;6205188;22;20103;-55
2023/12/04 10:51:57;;;;;;;11.70;5.40;;;2.50;99.90;;;;;;6206824;22;19997;-51
2023/12/04 10:54:23;;;;;;;11.75;5.05;;;2.50;99.90;;;;;;6206301;23;20011;-50
2023/12/04 10:56:53;;;;;;;9.07;5.55;;;2.50;99.90;;;;;;6205811;23;20057;-52
2023/12/04 10:59:25;;;;;;;11.90;4.50;;;2.50;99.90;;;;;;6206825;22;20091;-51
2023/12/04 11:01:54;;;;;;;10.95;5.40;;;2.40;99.90;;;;;;6206753;22;20009;-52
2023/12/04 11:04:23;;;;;;;13.40;5.93;;;2.40;99.90;;;;;;6206286;23;20012;-53
2023/12/04 11:06:52;;;;;;;11.52;5.35;;;2.50;99.90;;;;;;6179473;23;20009;-54
2023/12/04 11:09:20;;;;;;;14.27;6.32;;;2.50;99.90;;;;;;6206727;23;19997;-52
2023/12/04 11:11:50;;;;;;;9.90;4.97;;;2.60;99.90;;;;;;6206698;22;19997;-50
2023/12/04 11:14:22;;;;;;;10.65;5.18;;;2.50;99.90;;;;;;6181254;23;20498;-54
2023/12/04 11:16:54;;;;;;;11.25;5.35;;;2.40;99.90;;;;;;6206592;23;20119;-53
2023/12/04 11:19:23;;;;;;;12.93;6.05;;;2.30;99.90;;;;;;6192618;22;20043;-53
2023/12/04 11:21:50;;;;;;;14.23;5.93;;;2.20;99.90;;;;;;6205795;23;20515;-54
2023/12/04 11:24:18;;;;;;;10.57;5.70;;;2.20;99.90;;;;;;6206783;23;20008;-52
2023/12/04 11:26:44;;;;;;;10.85;5.72;;;2.10;99.90;;;;;;6206407;23;20120;-52
2023/12/04 11:29:12;;;;;;;12.15;5.68;;;2.00;99.90;;;;;;6179868;22;20036;-54
2023/12/04 11:31:38;;;;;;;11.52;5.82;;;2.00;99.90;;;;;;6206016;23;20479;-55
2023/12/04 11:34:04;;;;;;;9.43;4.57;;;2.00;99.90;;;;;;6205509;22;20009;-55
2023/12/04 11:36:30;;;;;;;10.75;5.30;;;2.00;99.90;;;;;;6206256;23;19997;-52
2023/12/04 11:38:58;;;;;;;12.52;6.25;;;2.00;99.90;;;;;;6206217;23;20038;-51
2023/12/04 11:41:25;;;;;;;13.43;5.80;;;1.90;99.90;;;;;;6206286;23;20000;-51
2023/12/04 11:43:51;;;;;;;12.60;6.43;;;1.80;99.90;;;;;;6206143;23;20569;-55
2023/12/04 11:46:28;;;;;;;13.35;6.20;;;1.90;99.90;;;;;;6206430;22;20004;-54
2023/12/04 11:48:55;;;;;;;11.50;6.38;;;1.70;99.90;;;;;;6206282;23;20038;-55
2023/12/04 11:51:39;;;;;;;13.35;6.50;;;1.80;99.90;;;;;;6206804;23;20001;-55
2023/12/04 11:54:08;;;;;;;11.60;6.50;;;1.70;99.90;;;;;;6206444;23;20001;-52
2023/12/04 11:56:34;;;;;;;11.40;5.70;;;1.80;99.90;;;;;;6205592;23;20013;-51
2023/12/04 11:59:07;;;;;;;12.73;6.35;;;1.70;99.90;;;;;;6179795;23;20027;-55
2023/12/04 12:01:37;;;;;;;15.75;6.28;;;1.70;99.90;;;;;;6206412;22;20004;-54
2023/12/04 12:04:06;;;;;;;11.48;5.57;;;1.70;99.90;;;;;;6207558;23;20004;-53
2023/12/04 12:06:32;;;;;;;17.25;7.10;;;1.60;99.90;;;;;;6206948;23;20009;-52
2023/12/04 12:08:58;;;;;;;12.40;6.07;;;1.60;99.90;;;;;;6205950;23;20066;-55
2023/12/04 12:11:24;;;;;;;12.80;6.07;;;1.70;99.90;;;;;;6205702;23;20001;-54
2023/12/04 12:13:50;;;;;;;13.52;5.75;;;1.70;99.90;;;;;;6206385;23;20076;-51
2023/12/04 12:16:18;;;;;;;10.63;5.47;;;1.70;99.90;;;;;;6180744;23;20028;-54
2023/12/04 12:18:44;;;;;;;12.40;5.65;;;1.60;99.90;;;;;;6206245;23;20001;-54
2023/12/04 12:21:10;;;;;;;12.90;5.90;;;1.60;99.90;;;;;;6190830;22;20020;-53
2023/12/04 12:23:35;;;;;;;11.13;4.95;;;1.50;99.90;;;;;;6206856;23;20070;-55
2023/12/04 12:26:01;;;;;;;13.90;6.72;;;1.50;99.90;;;;;;6207228;23;20004;-52
2023/12/04 12:28:28;;;;;;;11.48;5.35;;;1.50;99.90;;;;;;6207503;23;20005;-52
2023/12/04 12:30:54;;;;;;;10.75;5.90;;;1.60;99.90;;;;;;6207096;23;20091;-54
2023/12/04 12:33:20;;;;;;;11.07;5.15;;;1.60;99.90;;;;;;6207209;23;20040;-55
2023/12/04 12:35:49;;;;;;;9.68;5.38;;;1.50;99.90;;;;;;6205905;23;20000;-55